sensor_id;sensor_type;location;lat;lon;timestamp;P1;durP1;ratioP1;P2;durP2;ratioP2
32321;SDS011;61553;48.994;8.940;2023-04-10T00:00:59;17.23;;;11.10;;
32321;SDS011;61553;48.994;8.940;2023-04-10T00:03:25;18.17;;;10.98;;
32321;SDS011;61553;48.994;8.940;2023-04-10T00:05:52;18.55;;;10.15;;
32321;SDS011;61553;48.994;8.940;2023-04-10T00:08:19;21.45;;;12.23;;
32321;SDS011;61553;48.994;8.940;2023-04-10T00:10:48;21.98;;;11.75;;
32321;SDS011;61553;48.994;8.940;2023-04-10T00:13:14;17.33;;;11.15;;
32321;SDS011;61553;48.994;8.940;2023-04-10T00:15:40;19.05;;;11.70;;
32321;SDS011;61553;48.994;8.940;2023-04-10T00:18:06;19.00;;;11.10;;
32321;SDS011;61553;48.994;8.940;2023-04-10T00:20:31;20.38;;;12.05;;
32321;SDS011;61553;48.994;8.940;2023-04-10T00:22:57;26.55;;;14.40;;
32321;SDS011;61553;48.994;8.940;2023-04-10T00:25:23;39.47;;;20.88;;
32321;SDS011;61553;48.994;8.940;2023-04-10T00:27:48;33.95;;;18.92;;
32321;SDS011;61553;48.994;8.940;2023-04-10T00:30:14;29.23;;;15.60;;
32321;SDS011;61553;48.994;8.940;2023-04-10T00:32:40;25.75;;;13.85;;
32321;SDS011;61553;48.994;8.940;2023-04-10T00:35:06;23.10;;;12.45;;
32321;SDS011;61553;48.994;8.940;2023-04-10T00:37:33;22.50;;;13.02;;
32321;SDS011;61553;48.994;8.940;2023-04-10T00:39:58;21.25;;;12.23;;
32321;SDS011;61553;48.994;8.940;2023-04-10T00:42:24;21.90;;;12.48;;
32321;SDS011;61553;48.994;8.940;2023-04-10T00:44:50;21.05;;;12.43;;
32321;SDS011;61553;48.994;8.940;2023-04-10T00:47:15;20.30;;;11.88;;
32321;SDS011;61553;48.994;8.940;2023-04-10T00:49:41;20.05;;;12.13;;
32321;SDS011;61553;48.994;8.940;2023-04-10T00:52:08;20.13;;;11.45;;
32321;SDS011;61553;48.994;8.940;2023-04-10T00:54:34;21.08;;;12.27;;
32321;SDS011;61553;48.994;8.940;2023-04-10T00:57:01;23.33;;;13.00;;
32321;SDS011;61553;48.994;8.940;2023-04-10T00:59:27;21.48;;;11.88;;
32321;SDS011;61553;48.994;8.940;2023-04-10T01:01:53;22.60;;;12.23;;
32321;SDS011;61553;48.994;8.940;2023-04-10T01:04:20;21.98;;;12.82;;
32321;SDS011;61553;48.994;8.940;2023-04-10T01:07:09;24.10;;;12.55;;
32321;SDS011;61553;48.994;8.940;2023-04-10T01:17:51;26.08;;;12.90;;
32321;SDS011;61553;48.994;8.940;2023-04-10T01:20:23;21.15;;;11.93;;
32321;SDS011;61553;48.994;8.940;2023-04-10T01:22:59;20.17;;;12.45;;
32321;SDS011;61553;48.994;8.940;2023-04-10T01:25:37;19.17;;;11.30;;
32321;SDS011;61553;48.994;8.940;2023-04-10T01:30:48;23.90;;;13.77;;
32321;SDS011;61553;48.994;8.940;2023-04-10T01:33:17;23.00;;;12.88;;
32321;SDS011;61553;48.994;8.940;2023-04-10T01:35:46;23.77;;;12.80;;
32321;SDS011;61553;48.994;8.940;2023-04-10T01:38:16;20.63;;;12.63;;
32321;SDS011;61553;48.994;8.940;2023-04-10T01:40:44;22.63;;;12.80;;
32321;SDS011;61553;48.994;8.940;2023-04-10T01:43:15;24.85;;;12.93;;
32321;SDS011;61553;48.994;8.940;2023-04-10T01:45:41;21.42;;;11.82;;
32321;SDS011;61553;48.994;8.940;2023-04-10T01:48:10;21.85;;;13.43;;
32321;SDS011;61553;48.994;8.940;2023-04-10T01:50:36;22.63;;;12.57;;
32321;SDS011;61553;48.994;8.940;2023-04-10T01:53:04;24.65;;;13.50;;
32321;SDS011;61553;48.994;8.940;2023-04-10T01:55:31;22.40;;;12.43;;
32321;SDS011;61553;48.994;8.940;2023-04-10T01:57:58;21.88;;;12.60;;
32321;SDS011;61553;48.994;8.940;2023-04-10T02:00:25;21.98;;;12.80;;
32321;SDS011;61553;48.994;8.940;2023-04-10T02:02:51;26.23;;;13.30;;
32321;SDS011;61553;48.994;8.940;2023-04-10T02:05:17;22.77;;;12.85;;
32321;SDS011;61553;48.994;8.940;2023-04-10T02:07:49;19.77;;;11.77;;
32321;SDS011;61553;48.994;8.940;2023-04-10T02:13:04;20.67;;;11.50;;
32321;SDS011;61553;48.994;8.940;2023-04-10T02:15:31;18.30;;;10.80;;
32321;SDS011;61553;48.994;8.940;2023-04-10T02:21:20;20.58;;;12.00;;
32321;SDS011;61553;48.994;8.940;2023-04-10T02:23:46;22.15;;;12.77;;
32321;SDS011;61553;48.994;8.940;2023-04-10T02:26:12;24.08;;;13.55;;
32321;SDS011;61553;48.994;8.940;2023-04-10T02:28:37;24.73;;;13.35;;
32321;SDS011;61553;48.994;8.940;2023-04-10T02:31:04;24.15;;;13.30;;
32321;SDS011;61553;48.994;8.940;2023-04-10T02:33:30;25.20;;;12.73;;
32321;SDS011;61553;48.994;8.940;2023-04-10T02:35:56;22.23;;;12.27;;
32321;SDS011;61553;48.994;8.940;2023-04-10T02:38:21;21.83;;;12.13;;
32321;SDS011;61553;48.994;8.940;2023-04-10T02:40:47;19.33;;;10.48;;
32321;SDS011;61553;48.994;8.940;2023-04-10T02:43:14;20.27;;;10.52;;
32321;SDS011;61553;48.994;8.940;2023-04-10T02:45:40;21.75;;;11.70;;
32321;SDS011;61553;48.994;8.940;2023-04-10T02:48:05;19.67;;;11.02;;
32321;SDS011;61553;48.994;8.940;2023-04-10T02:50:31;19.38;;;10.80;;
32321;SDS011;61553;48.994;8.940;2023-04-10T02:52:57;22.55;;;11.80;;
32321;SDS011;61553;48.994;8.940;2023-04-10T02:55:22;23.23;;;12.50;;
32321;SDS011;61553;48.994;8.940;2023-04-10T02:57:48;24.13;;;12.80;;
32321;SDS011;61553;48.994;8.940;2023-04-10T03:00:14;23.90;;;12.45;;
32321;SDS011;61553;48.994;8.940;2023-04-10T03:02:40;22.83;;;12.40;;
32321;SDS011;61553;48.994;8.940;2023-04-10T03:05:05;25.98;;;12.48;;
32321;SDS011;61553;48.994;8.940;2023-04-10T03:07:32;20.80;;;11.70;;
32321;SDS011;61553;48.994;8.940;2023-04-10T03:09:58;21.92;;;12.23;;
32321;SDS011;61553;48.994;8.940;2023-04-10T03:12:24;22.52;;;12.52;;
32321;SDS011;61553;48.994;8.940;2023-04-10T03:14:49;25.35;;;13.02;;
32321;SDS011;61553;48.994;8.940;2023-04-10T03:17:15;22.75;;;12.32;;
32321;SDS011;61553;48.994;8.940;2023-04-10T03:19:41;24.05;;;12.63;;
32321;SDS011;61553;48.994;8.940;2023-04-10T03:22:06;23.75;;;13.52;;
32321;SDS011;61553;48.994;8.940;2023-04-10T03:24:32;22.50;;;12.40;;
32321;SDS011;61553;48.994;8.940;2023-04-10T03:26:58;24.95;;;13.13;;
32321;SDS011;61553;48.994;8.940;2023-04-10T03:29:23;24.35;;;13.20;;
32321;SDS011;61553;48.994;8.940;2023-04-10T03:31:49;24.30;;;13.63;;
32321;SDS011;61553;48.994;8.940;2023-04-10T03:34:15;27.70;;;13.60;;
32321;SDS011;61553;48.994;8.940;2023-04-10T03:36:40;25.58;;;12.75;;
32321;SDS011;61553;48.994;8.940;2023-04-10T03:39:06;23.05;;;12.00;;
32321;SDS011;61553;48.994;8.940;2023-04-10T03:41:32;26.95;;;13.68;;
32321;SDS011;61553;48.994;8.940;2023-04-10T03:43:57;24.85;;;13.00;;
32321;SDS011;61553;48.994;8.940;2023-04-10T03:46:24;21.00;;;12.07;;
32321;SDS011;61553;48.994;8.940;2023-04-10T03:48:50;23.92;;;12.88;;
32321;SDS011;61553;48.994;8.940;2023-04-10T03:51:17;23.83;;;13.43;;
32321;SDS011;61553;48.994;8.940;2023-04-10T03:53:43;22.50;;;13.02;;
32321;SDS011;61553;48.994;8.940;2023-04-10T03:56:09;22.08;;;12.82;;
32321;SDS011;61553;48.994;8.940;2023-04-10T03:58:35;24.75;;;13.32;;
32321;SDS011;61553;48.994;8.940;2023-04-10T04:01:00;21.73;;;11.55;;
32321;SDS011;61553;48.994;8.940;2023-04-10T04:03:26;24.10;;;12.85;;
32321;SDS011;61553;48.994;8.940;2023-04-10T04:05:52;22.15;;;12.27;;
32321;SDS011;61553;48.994;8.940;2023-04-10T04:08:17;24.60;;;12.85;;
32321;SDS011;61553;48.994;8.940;2023-04-10T04:10:43;25.10;;;13.75;;
32321;SDS011;61553;48.994;8.940;2023-04-10T04:13:09;24.98;;;13.70;;
32321;SDS011;61553;48.994;8.940;2023-04-10T04:15:35;24.40;;;13.63;;
32321;SDS011;61553;48.994;8.940;2023-04-10T04:18:00;24.83;;;13.07;;
32321;SDS011;61553;48.994;8.940;2023-04-10T04:20:26;27.23;;;15.38;;
32321;SDS011;61553;48.994;8.940;2023-04-10T04:22:51;30.48;;;14.30;;
32321;SDS011;61553;48.994;8.940;2023-04-10T04:25:17;27.60;;;14.13;;
32321;SDS011;61553;48.994;8.940;2023-04-10T04:27:43;25.20;;;13.40;;
32321;SDS011;61553;48.994;8.940;2023-04-10T04:30:09;24.38;;;13.52;;
32321;SDS011;61553;48.994;8.940;2023-04-10T04:32:35;26.90;;;12.98;;
32321;SDS011;61553;48.994;8.940;2023-04-10T04:35:01;27.38;;;14.10;;
32321;SDS011;61553;48.994;8.940;2023-04-10T04:37:27;26.75;;;14.45;;
32321;SDS011;61553;48.994;8.940;2023-04-10T04:39:52;24.67;;;14.40;;
32321;SDS011;61553;48.994;8.940;2023-04-10T04:42:18;21.52;;;12.50;;
32321;SDS011;61553;48.994;8.940;2023-04-10T04:44:44;25.80;;;14.13;;
32321;SDS011;61553;48.994;8.940;2023-04-10T04:47:09;24.60;;;13.38;;
32321;SDS011;61553;48.994;8.940;2023-04-10T04:49:35;25.00;;;13.43;;
32321;SDS011;61553;48.994;8.940;2023-04-10T04:52:01;27.05;;;15.20;;
32321;SDS011;61553;48.994;8.940;2023-04-10T04:54:26;25.05;;;14.18;;
32321;SDS011;61553;48.994;8.940;2023-04-10T04:56:52;24.42;;;13.63;;
32321;SDS011;61553;48.994;8.940;2023-04-10T04:59:18;27.42;;;14.23;;
32321;SDS011;61553;48.994;8.940;2023-04-10T05:01:43;25.38;;;14.32;;
32321;SDS011;61553;48.994;8.940;2023-04-10T05:04:09;24.50;;;13.90;;
32321;SDS011;61553;48.994;8.940;2023-04-10T05:06:35;23.17;;;13.63;;
32321;SDS011;61553;48.994;8.940;2023-04-10T05:09:01;24.52;;;12.93;;
32321;SDS011;61553;48.994;8.940;2023-04-10T05:11:27;23.25;;;13.70;;
32321;SDS011;61553;48.994;8.940;2023-04-10T05:13:52;37.20;;;18.58;;
32321;SDS011;61553;48.994;8.940;2023-04-10T05:16:18;27.90;;;14.38;;
32321;SDS011;61553;48.994;8.940;2023-04-10T05:18:44;21.52;;;12.68;;
32321;SDS011;61553;48.994;8.940;2023-04-10T05:21:10;21.42;;;11.98;;
32321;SDS011;61553;48.994;8.940;2023-04-10T05:23:36;24.45;;;12.38;;
32321;SDS011;61553;48.994;8.940;2023-04-10T05:26:01;21.77;;;11.20;;
32321;SDS011;61553;48.994;8.940;2023-04-10T05:28:27;22.98;;;12.82;;
32321;SDS011;61553;48.994;8.940;2023-04-10T05:30:53;20.55;;;13.05;;
32321;SDS011;61553;48.994;8.940;2023-04-10T05:33:19;19.38;;;12.40;;
32321;SDS011;61553;48.994;8.940;2023-04-10T05:35:45;19.27;;;10.40;;
32321;SDS011;61553;48.994;8.940;2023-04-10T05:38:11;18.95;;;11.68;;
32321;SDS011;61553;48.994;8.940;2023-04-10T05:40:36;17.90;;;10.93;;
32321;SDS011;61553;48.994;8.940;2023-04-10T05:43:02;18.77;;;11.02;;
32321;SDS011;61553;48.994;8.940;2023-04-10T05:45:28;19.05;;;10.15;;
32321;SDS011;61553;48.994;8.940;2023-04-10T05:47:54;16.23;;;9.55;;
32321;SDS011;61553;48.994;8.940;2023-04-10T05:50:19;18.45;;;11.23;;
32321;SDS011;61553;48.994;8.940;2023-04-10T05:52:45;18.45;;;11.05;;
32321;SDS011;61553;48.994;8.940;2023-04-10T05:55:11;18.15;;;10.77;;
32321;SDS011;61553;48.994;8.940;2023-04-10T05:57:37;19.45;;;11.52;;
32321;SDS011;61553;48.994;8.940;2023-04-10T06:00:03;17.15;;;10.35;;
32321;SDS011;61553;48.994;8.940;2023-04-10T06:02:29;18.63;;;10.25;;
32321;SDS011;61553;48.994;8.940;2023-04-10T06:04:56;19.67;;;10.23;;
32321;SDS011;61553;48.994;8.940;2023-04-10T06:07:21;17.20;;;10.30;;
32321;SDS011;61553;48.994;8.940;2023-04-10T06:09:47;14.70;;;9.32;;
32321;SDS011;61553;48.994;8.940;2023-04-10T06:12:13;14.30;;;9.00;;
32321;SDS011;61553;48.994;8.940;2023-04-10T06:14:38;13.57;;;9.52;;
32321;SDS011;61553;48.994;8.940;2023-04-10T06:17:04;15.57;;;10.10;;
32321;SDS011;61553;48.994;8.940;2023-04-10T06:19:30;18.45;;;10.48;;
32321;SDS011;61553;48.994;8.940;2023-04-10T06:21:56;16.42;;;9.93;;
32321;SDS011;61553;48.994;8.940;2023-04-10T06:24:21;15.77;;;9.68;;
32321;SDS011;61553;48.994;8.940;2023-04-10T06:26:47;19.42;;;10.48;;
32321;SDS011;61553;48.994;8.940;2023-04-10T06:29:13;16.80;;;9.48;;
32321;SDS011;61553;48.994;8.940;2023-04-10T06:31:38;16.83;;;10.52;;
32321;SDS011;61553;48.994;8.940;2023-04-10T06:34:04;18.67;;;12.32;;
32321;SDS011;61553;48.994;8.940;2023-04-10T06:36:30;18.60;;;11.00;;
32321;SDS011;61553;48.994;8.940;2023-04-10T06:38:55;15.70;;;9.60;;
32321;SDS011;61553;48.994;8.940;2023-04-10T06:41:21;18.40;;;12.05;;
32321;SDS011;61553;48.994;8.940;2023-04-10T06:43:47;16.52;;;10.85;;
32321;SDS011;61553;48.994;8.940;2023-04-10T06:46:12;16.13;;;10.23;;
32321;SDS011;61553;48.994;8.940;2023-04-10T06:48:39;15.77;;;9.73;;
32321;SDS011;61553;48.994;8.940;2023-04-10T06:51:05;14.88;;;9.25;;
32321;SDS011;61553;48.994;8.940;2023-04-10T06:53:31;14.48;;;9.10;;
32321;SDS011;61553;48.994;8.940;2023-04-10T06:55:57;14.35;;;8.23;;
32321;SDS011;61553;48.994;8.940;2023-04-10T06:58:23;11.75;;;7.57;;
32321;SDS011;61553;48.994;8.940;2023-04-10T07:00:48;12.55;;;8.30;;
32321;SDS011;61553;48.994;8.940;2023-04-10T07:03:14;13.20;;;8.05;;
32321;SDS011;61553;48.994;8.940;2023-04-10T07:05:39;10.68;;;6.78;;
32321;SDS011;61553;48.994;8.940;2023-04-10T07:08:05;11.55;;;7.97;;
32321;SDS011;61553;48.994;8.940;2023-04-10T07:10:32;10.95;;;7.70;;
32321;SDS011;61553;48.994;8.940;2023-04-10T07:12:58;10.88;;;7.32;;
32321;SDS011;61553;48.994;8.940;2023-04-10T07:15:24;9.57;;;7.38;;
32321;SDS011;61553;48.994;8.940;2023-04-10T07:17:50;10.20;;;7.47;;
32321;SDS011;61553;48.994;8.940;2023-04-10T07:20:15;10.73;;;7.47;;
32321;SDS011;61553;48.994;8.940;2023-04-10T07:22:41;11.25;;;7.55;;
32321;SDS011;61553;48.994;8.940;2023-04-10T07:25:07;10.80;;;8.35;;
32321;SDS011;61553;48.994;8.940;2023-04-10T07:27:33;10.30;;;7.43;;
32321;SDS011;61553;48.994;8.940;2023-04-10T07:29:58;9.98;;;7.55;;
32321;SDS011;61553;48.994;8.940;2023-04-10T07:32:24;12.07;;;8.07;;
32321;SDS011;61553;48.994;8.940;2023-04-10T07:34:50;9.75;;;7.40;;
32321;SDS011;61553;48.994;8.940;2023-04-10T07:37:15;11.73;;;7.63;;
32321;SDS011;61553;48.994;8.940;2023-04-10T07:39:42;10.98;;;7.60;;
32321;SDS011;61553;48.994;8.940;2023-04-10T07:42:08;12.70;;;8.45;;
32321;SDS011;61553;48.994;8.940;2023-04-10T07:44:37;40.70;;;28.45;;
32321;SDS011;61553;48.994;8.940;2023-04-10T07:47:03;14.05;;;9.43;;
32321;SDS011;61553;48.994;8.940;2023-04-10T07:49:28;10.32;;;8.02;;
32321;SDS011;61553;48.994;8.940;2023-04-10T07:51:54;8.77;;;6.90;;
32321;SDS011;61553;48.994;8.940;2023-04-10T07:54:19;11.13;;;8.07;;
32321;SDS011;61553;48.994;8.940;2023-04-10T07:56:45;8.80;;;7.32;;
32321;SDS011;61553;48.994;8.940;2023-04-10T07:59:11;9.88;;;7.70;;
32321;SDS011;61553;48.994;8.940;2023-04-10T08:01:36;9.75;;;7.70;;
32321;SDS011;61553;48.994;8.940;2023-04-10T08:04:02;9.18;;;7.18;;
32321;SDS011;61553;48.994;8.940;2023-04-10T08:06:28;11.13;;;7.40;;
32321;SDS011;61553;48.994;8.940;2023-04-10T08:08:55;9.45;;;7.28;;
32321;SDS011;61553;48.994;8.940;2023-04-10T08:13:58;10.02;;;7.30;;
32321;SDS011;61553;48.994;8.940;2023-04-10T08:16:28;10.57;;;7.03;;
32321;SDS011;61553;48.994;8.940;2023-04-10T08:18:59;9.73;;;7.22;;
32321;SDS011;61553;48.994;8.940;2023-04-10T08:21:25;9.18;;;6.93;;
32321;SDS011;61553;48.994;8.940;2023-04-10T08:23:53;8.48;;;6.45;;
32321;SDS011;61553;48.994;8.940;2023-04-10T08:26:19;9.57;;;7.43;;
32321;SDS011;61553;48.994;8.940;2023-04-10T08:28:48;9.35;;;6.88;;
32321;SDS011;61553;48.994;8.940;2023-04-10T08:31:18;8.05;;;6.05;;
32321;SDS011;61553;48.994;8.940;2023-04-10T08:33:45;7.40;;;5.93;;
32321;SDS011;61553;48.994;8.940;2023-04-10T08:36:11;7.72;;;6.40;;
32321;SDS011;61553;48.994;8.940;2023-04-10T08:38:39;7.55;;;6.00;;
32321;SDS011;61553;48.994;8.940;2023-04-10T08:41:05;7.82;;;5.95;;
32321;SDS011;61553;48.994;8.940;2023-04-10T08:43:33;7.65;;;5.75;;
32321;SDS011;61553;48.994;8.940;2023-04-10T08:46:00;7.05;;;4.95;;
32321;SDS011;61553;48.994;8.940;2023-04-10T08:48:27;6.40;;;4.90;;
32321;SDS011;61553;48.994;8.940;2023-04-10T08:51:16;9.55;;;5.65;;
32321;SDS011;61553;48.994;8.940;2023-04-10T08:53:44;7.32;;;5.45;;
32321;SDS011;61553;48.994;8.940;2023-04-10T08:56:12;7.57;;;5.15;;
32321;SDS011;61553;48.994;8.940;2023-04-10T08:58:40;7.90;;;5.00;;
32321;SDS011;61553;48.994;8.940;2023-04-10T09:01:06;10.65;;;5.65;;
32321;SDS011;61553;48.994;8.940;2023-04-10T09:03:33;6.53;;;5.10;;
32321;SDS011;61553;48.994;8.940;2023-04-10T09:06:03;8.60;;;6.40;;
32321;SDS011;61553;48.994;8.940;2023-04-10T09:08:29;7.30;;;5.38;;
32321;SDS011;61553;48.994;8.940;2023-04-10T09:10:55;7.40;;;5.57;;
32321;SDS011;61553;48.994;8.940;2023-04-10T09:13:42;6.97;;;5.60;;
32321;SDS011;61553;48.994;8.940;2023-04-10T09:16:08;8.30;;;6.20;;
32321;SDS011;61553;48.994;8.940;2023-04-10T09:18:48;7.18;;;5.82;;
32321;SDS011;61553;48.994;8.940;2023-04-10T09:21:16;7.65;;;5.63;;
32321;SDS011;61553;48.994;8.940;2023-04-10T09:23:45;5.70;;;4.60;;
32321;SDS011;61553;48.994;8.940;2023-04-10T09:31:45;6.72;;;5.25;;
32321;SDS011;61553;48.994;8.940;2023-04-10T09:34:14;6.63;;;4.78;;
32321;SDS011;61553;48.994;8.940;2023-04-10T09:36:41;6.25;;;4.50;;
32321;SDS011;61553;48.994;8.940;2023-04-10T09:39:09;6.50;;;4.63;;
32321;SDS011;61553;48.994;8.940;2023-04-10T09:44:15;6.97;;;4.50;;
32321;SDS011;61553;48.994;8.940;2023-04-10T09:46:43;5.72;;;4.50;;
32321;SDS011;61553;48.994;8.940;2023-04-10T09:49:09;6.57;;;4.78;;
32321;SDS011;61553;48.994;8.940;2023-04-10T09:51:35;7.53;;;4.90;;
32321;SDS011;61553;48.994;8.940;2023-04-10T09:54:02;5.63;;;4.10;;
32321;SDS011;61553;48.994;8.940;2023-04-10T09:56:31;5.85;;;4.40;;
32321;SDS011;61553;48.994;8.940;2023-04-10T09:59:04;6.22;;;4.60;;
32321;SDS011;61553;48.994;8.940;2023-04-10T10:01:31;5.38;;;4.00;;
32321;SDS011;61553;48.994;8.940;2023-04-10T10:04:01;5.60;;;3.85;;
32321;SDS011;61553;48.994;8.940;2023-04-10T10:06:31;4.60;;;3.33;;
32321;SDS011;61553;48.994;8.940;2023-04-10T10:09:01;4.80;;;3.55;;
32321;SDS011;61553;48.994;8.940;2023-04-10T10:11:28;4.55;;;3.55;;
32321;SDS011;61553;48.994;8.940;2023-04-10T10:13:58;5.10;;;3.35;;
32321;SDS011;61553;48.994;8.940;2023-04-10T10:16:38;4.68;;;3.33;;
32321;SDS011;61553;48.994;8.940;2023-04-10T10:19:10;4.55;;;3.22;;
32321;SDS011;61553;48.994;8.940;2023-04-10T10:21:42;5.18;;;3.10;;
32321;SDS011;61553;48.994;8.940;2023-04-10T10:24:09;4.82;;;3.17;;
32321;SDS011;61553;48.994;8.940;2023-04-10T10:26:39;6.18;;;3.85;;
32321;SDS011;61553;48.994;8.940;2023-04-10T10:29:07;5.50;;;3.80;;
32321;SDS011;61553;48.994;8.940;2023-04-10T10:31:35;5.68;;;4.10;;
32321;SDS011;61553;48.994;8.940;2023-04-10T10:34:02;5.18;;;3.53;;
32321;SDS011;61553;48.994;8.940;2023-04-10T10:36:35;4.65;;;2.95;;
32321;SDS011;61553;48.994;8.940;2023-04-10T10:47:14;4.57;;;2.97;;
32321;SDS011;61553;48.994;8.940;2023-04-10T10:55:45;11.52;;;8.57;;
32321;SDS011;61553;48.994;8.940;2023-04-10T10:57:58;5.85;;;4.28;;
32321;SDS011;61553;48.994;8.940;2023-04-10T11:11:23;6.05;;;3.72;;
32321;SDS011;61553;48.994;8.940;2023-04-10T11:19:00;5.43;;;2.90;;
32321;SDS011;61553;48.994;8.940;2023-04-10T11:21:27;11.95;;;7.68;;
32321;SDS011;61553;48.994;8.940;2023-04-10T11:28:57;9.05;;;5.63;;
32321;SDS011;61553;48.994;8.940;2023-04-10T11:31:24;5.03;;;3.03;;
32321;SDS011;61553;48.994;8.940;2023-04-10T11:36:22;4.13;;;2.40;;
32321;SDS011;61553;48.994;8.940;2023-04-10T11:38:58;4.38;;;2.50;;
32321;SDS011;61553;48.994;8.940;2023-04-10T11:41:31;3.28;;;2.20;;
32321;SDS011;61553;48.994;8.940;2023-04-10T11:44:01;3.95;;;2.25;;
32321;SDS011;61553;48.994;8.940;2023-04-10T11:46:29;4.03;;;2.58;;
32321;SDS011;61553;48.994;8.940;2023-04-10T11:48:59;5.13;;;2.58;;
32321;SDS011;61553;48.994;8.940;2023-04-10T11:51:26;4.80;;;2.42;;
32321;SDS011;61553;48.994;8.940;2023-04-10T11:56:33;2.80;;;1.90;;
32321;SDS011;61553;48.994;8.940;2023-04-10T11:58:59;4.40;;;2.20;;
32321;SDS011;61553;48.994;8.940;2023-04-10T12:01:26;4.03;;;2.20;;
32321;SDS011;61553;48.994;8.940;2023-04-10T12:03:52;4.05;;;2.45;;
32321;SDS011;61553;48.994;8.940;2023-04-10T12:06:18;3.40;;;1.88;;
32321;SDS011;61553;48.994;8.940;2023-04-10T12:08:46;3.45;;;1.85;;
32321;SDS011;61553;48.994;8.940;2023-04-10T12:11:22;3.25;;;1.85;;
32321;SDS011;61553;48.994;8.940;2023-04-10T12:13:55;4.35;;;2.05;;
32321;SDS011;61553;48.994;8.940;2023-04-10T12:16:21;4.07;;;1.98;;
32321;SDS011;61553;48.994;8.940;2023-04-10T12:18:48;2.55;;;1.40;;
32321;SDS011;61553;48.994;8.940;2023-04-10T12:21:14;4.13;;;1.77;;
32321;SDS011;61553;48.994;8.940;2023-04-10T12:23:41;2.90;;;1.40;;
32321;SDS011;61553;48.994;8.940;2023-04-10T12:26:13;2.45;;;1.23;;
32321;SDS011;61553;48.994;8.940;2023-04-10T12:28:41;2.80;;;1.40;;
32321;SDS011;61553;48.994;8.940;2023-04-10T12:31:24;1.92;;;1.08;;
32321;SDS011;61553;48.994;8.940;2023-04-10T12:33:52;3.22;;;1.60;;
32321;SDS011;61553;48.994;8.940;2023-04-10T12:36:22;1.80;;;0.93;;
32321;SDS011;61553;48.994;8.940;2023-04-10T12:38:48;2.97;;;1.52;;
32321;SDS011;61553;48.994;8.940;2023-04-10T12:41:19;2.55;;;1.40;;
32321;SDS011;61553;48.994;8.940;2023-04-10T12:43:47;2.50;;;1.50;;
32321;SDS011;61553;48.994;8.940;2023-04-10T12:46:22;2.55;;;1.30;;
32321;SDS011;61553;48.994;8.940;2023-04-10T12:48:52;2.08;;;1.27;;
32321;SDS011;61553;48.994;8.940;2023-04-10T12:51:18;2.33;;;1.10;;
32321;SDS011;61553;48.994;8.940;2023-04-10T12:53:44;2.03;;;1.20;;
32321;SDS011;61553;48.994;8.940;2023-04-10T12:56:10;2.25;;;1.10;;
32321;SDS011;61553;48.994;8.940;2023-04-10T12:58:37;2.90;;;1.17;;
32321;SDS011;61553;48.994;8.940;2023-04-10T13:01:04;4.50;;;2.60;;
32321;SDS011;61553;48.994;8.940;2023-04-10T13:03:35;2.75;;;1.70;;
32321;SDS011;61553;48.994;8.940;2023-04-10T13:06:02;2.80;;;1.50;;
32321;SDS011;61553;48.994;8.940;2023-04-10T13:08:31;3.53;;;1.98;;
32321;SDS011;61553;48.994;8.940;2023-04-10T13:10:58;2.83;;;1.55;;
32321;SDS011;61553;48.994;8.940;2023-04-10T13:13:27;3.58;;;1.90;;
32321;SDS011;61553;48.994;8.940;2023-04-10T13:15:54;4.78;;;2.30;;
32321;SDS011;61553;48.994;8.940;2023-04-10T13:18:20;5.40;;;2.90;;
32321;SDS011;61553;48.994;8.940;2023-04-10T13:20:45;4.07;;;2.05;;
32321;SDS011;61553;48.994;8.940;2023-04-10T13:23:11;2.60;;;1.50;;
32321;SDS011;61553;48.994;8.940;2023-04-10T13:25:37;1.38;;;1.00;;
32321;SDS011;61553;48.994;8.940;2023-04-10T13:28:04;4.60;;;1.83;;
32321;SDS011;61553;48.994;8.940;2023-04-10T13:30:34;2.30;;;1.10;;
32321;SDS011;61553;48.994;8.940;2023-04-10T13:33:01;3.38;;;1.23;;
32321;SDS011;61553;48.994;8.940;2023-04-10T13:35:26;2.13;;;0.93;;
32321;SDS011;61553;48.994;8.940;2023-04-10T13:37:53;2.47;;;1.30;;
32321;SDS011;61553;48.994;8.940;2023-04-10T13:40:19;2.88;;;1.50;;
32321;SDS011;61553;48.994;8.940;2023-04-10T13:42:45;3.33;;;1.90;;
32321;SDS011;61553;48.994;8.940;2023-04-10T13:45:14;3.10;;;1.52;;
32321;SDS011;61553;48.994;8.940;2023-04-10T13:47:40;3.25;;;1.50;;
32321;SDS011;61553;48.994;8.940;2023-04-10T13:50:06;6.63;;;3.28;;
32321;SDS011;61553;48.994;8.940;2023-04-10T13:52:32;3.20;;;1.70;;
32321;SDS011;61553;48.994;8.940;2023-04-10T13:54:58;1.85;;;0.90;;
32321;SDS011;61553;48.994;8.940;2023-04-10T13:57:23;1.92;;;1.05;;
32321;SDS011;61553;48.994;8.940;2023-04-10T13:59:49;7.65;;;4.93;;
32321;SDS011;61553;48.994;8.940;2023-04-10T14:02:15;8.25;;;5.28;;
32321;SDS011;61553;48.994;8.940;2023-04-10T14:04:40;1.98;;;1.20;;
32321;SDS011;61553;48.994;8.940;2023-04-10T14:07:07;2.38;;;1.38;;
32321;SDS011;61553;48.994;8.940;2023-04-10T14:09:33;1.83;;;0.82;;
32321;SDS011;61553;48.994;8.940;2023-04-10T14:11:59;3.88;;;2.17;;
32321;SDS011;61553;48.994;8.940;2023-04-10T14:14:25;2.35;;;1.10;;
32321;SDS011;61553;48.994;8.940;2023-04-10T14:16:51;1.98;;;1.02;;
32321;SDS011;61553;48.994;8.940;2023-04-10T14:19:17;3.47;;;1.85;;
32321;SDS011;61553;48.994;8.940;2023-04-10T14:21:42;1.42;;;0.85;;
32321;SDS011;61553;48.994;8.940;2023-04-10T14:24:08;3.88;;;1.98;;
32321;SDS011;61553;48.994;8.940;2023-04-10T14:26:35;3.28;;;1.60;;
32321;SDS011;61553;48.994;8.940;2023-04-10T14:29:00;6.65;;;2.80;;
32321;SDS011;61553;48.994;8.940;2023-04-10T14:31:26;3.38;;;1.05;;
32321;SDS011;61553;48.994;8.940;2023-04-10T14:33:52;1.77;;;0.98;;
32321;SDS011;61553;48.994;8.940;2023-04-10T14:36:17;3.67;;;1.13;;
32321;SDS011;61553;48.994;8.940;2023-04-10T14:38:43;2.90;;;1.30;;
32321;SDS011;61553;48.994;8.940;2023-04-10T14:41:09;2.15;;;1.27;;
32321;SDS011;61553;48.994;8.940;2023-04-10T14:43:35;2.28;;;1.10;;
32321;SDS011;61553;48.994;8.940;2023-04-10T14:46:01;2.17;;;1.20;;
32321;SDS011;61553;48.994;8.940;2023-04-10T14:48:27;6.18;;;2.30;;
32321;SDS011;61553;48.994;8.940;2023-04-10T14:50:53;4.40;;;1.60;;
32321;SDS011;61553;48.994;8.940;2023-04-10T14:53:20;1.63;;;0.82;;
32321;SDS011;61553;48.994;8.940;2023-04-10T14:55:47;1.70;;;0.90;;
32321;SDS011;61553;48.994;8.940;2023-04-10T14:58:13;2.00;;;1.00;;
32321;SDS011;61553;48.994;8.940;2023-04-10T15:00:38;1.65;;;1.00;;
32321;SDS011;61553;48.994;8.940;2023-04-10T15:03:04;2.97;;;1.23;;
32321;SDS011;61553;48.994;8.940;2023-04-10T15:05:30;3.08;;;1.42;;
32321;SDS011;61553;48.994;8.940;2023-04-10T15:07:56;2.85;;;1.17;;
32321;SDS011;61553;48.994;8.940;2023-04-10T15:10:22;1.50;;;0.88;;
32321;SDS011;61553;48.994;8.940;2023-04-10T15:12:47;2.00;;;1.00;;
32321;SDS011;61553;48.994;8.940;2023-04-10T15:15:13;2.33;;;1.00;;
32321;SDS011;61553;48.994;8.940;2023-04-10T15:17:39;2.78;;;1.40;;
32321;SDS011;61553;48.994;8.940;2023-04-10T15:20:05;2.10;;;1.10;;
32321;SDS011;61553;48.994;8.940;2023-04-10T15:22:31;1.63;;;1.00;;
32321;SDS011;61553;48.994;8.940;2023-04-10T15:24:58;3.53;;;1.42;;
32321;SDS011;61553;48.994;8.940;2023-04-10T15:27:23;2.70;;;1.40;;
32321;SDS011;61553;48.994;8.940;2023-04-10T15:29:49;1.30;;;0.80;;
32321;SDS011;61553;48.994;8.940;2023-04-10T15:32:14;1.25;;;0.70;;
32321;SDS011;61553;48.994;8.940;2023-04-10T15:34:40;1.95;;;0.95;;
32321;SDS011;61553;48.994;8.940;2023-04-10T15:37:06;3.03;;;0.90;;
32321;SDS011;61553;48.994;8.940;2023-04-10T15:39:31;2.03;;;0.85;;
32321;SDS011;61553;48.994;8.940;2023-04-10T15:41:57;2.17;;;0.80;;